createdAt,value
2022-10-25T00:01:45.672Z,13.68
2022-10-25T00:06:55.331Z,13.60
2022-10-25T00:09:28.826Z,13.62
2022-10-25T00:12:02.670Z,13.61
2022-10-25T00:14:36.808Z,13.61
2022-10-25T00:17:10.813Z,13.57
2022-10-25T00:19:46.315Z,13.59
2022-10-25T00:22:20.058Z,13.58
2022-10-25T00:24:53.557Z,13.56
2022-10-25T00:27:27.219Z,13.52
2022-10-25T00:30:00.787Z,13.51
2022-10-25T00:32:34.746Z,13.48
2022-10-25T00:35:10.416Z,13.44
2022-10-25T00:40:22.536Z,13.40
2022-10-25T00:42:56.305Z,13.37
2022-10-25T00:45:29.826Z,13.37
2022-10-25T00:48:07.289Z,13.36
2022-10-25T00:50:49.123Z,13.35
2022-10-25T00:53:26.452Z,13.38
2022-10-25T00:56:04.791Z,13.38
2022-10-25T00:58:40.155Z,13.38
2022-10-25T01:01:15.917Z,13.37
2022-10-25T01:03:53.249Z,13.41
2022-10-25T01:06:34.158Z,13.42
2022-10-25T01:09:09.584Z,13.44
2022-10-25T01:11:42.989Z,13.51
2022-10-25T01:14:17.902Z,13.56
2022-10-25T01:16:59.514Z,13.58
2022-10-25T01:19:57.883Z,13.59
2022-10-25T01:22:40.118Z,13.68
2022-10-25T01:25:39.419Z,13.72
2022-10-25T01:28:18.654Z,13.78
2022-10-25T01:31:17.533Z,13.77
2022-10-25T01:33:57.575Z,13.79
2022-10-25T01:36:42.060Z,13.83
2022-10-25T01:39:21.034Z,13.85
2022-10-25T01:42:02.040Z,13.89
2022-10-25T01:44:45.216Z,13.90
2022-10-25T01:47:24.568Z,13.83
2022-10-25T01:50:01.764Z,13.89
2022-10-25T01:52:35.558Z,13.89
2022-10-25T01:55:14.242Z,13.86
2022-10-25T01:58:04.413Z,13.92
2022-10-25T02:00:46.694Z,13.86
2022-10-25T02:03:30.297Z,13.83
2022-10-25T02:06:17.071Z,13.81
2022-10-25T02:09:00.089Z,13.81
2022-10-25T02:11:34.596Z,13.80
2022-10-25T02:14:20.690Z,13.80
2022-10-25T02:17:00.070Z,13.82
2022-10-25T02:19:38.286Z,13.83
2022-10-25T02:22:14.319Z,13.83
2022-10-25T02:24:49.825Z,13.86
2022-10-25T02:27:25.340Z,13.79
2022-10-25T02:29:59.812Z,13.73
2022-10-25T02:32:33.420Z,13.75
2022-10-25T02:37:51.845Z,13.72
2022-10-25T02:40:26.610Z,13.68
2022-10-25T02:43:00.078Z,13.67
2022-10-25T02:45:34.030Z,13.70
2022-10-25T02:48:07.599Z,13.68
2022-10-25T02:50:42.687Z,13.80
2022-10-25T02:53:16.206Z,13.83
2022-10-25T02:55:49.954Z,13.90
2022-10-25T02:58:23.361Z,13.85
2022-10-25T03:00:57.222Z,13.86
2022-10-25T03:03:30.806Z,13.80
2022-10-25T03:06:06.703Z,13.76
2022-10-25T03:08:41.426Z,13.71
2022-10-25T03:11:16.573Z,13.69
2022-10-25T03:13:50.062Z,13.73
2022-10-25T03:16:23.724Z,13.75
2022-10-25T03:18:58.816Z,13.74
2022-10-25T03:21:36.544Z,13.68
2022-10-25T03:24:12.251Z,13.68
2022-10-25T03:26:45.939Z,13.68
2022-10-25T03:29:19.586Z,13.67
2022-10-25T03:31:53.251Z,13.70
2022-10-25T03:34:27.066Z,13.71
2022-10-25T03:37:02.150Z,13.75
2022-10-25T03:39:35.596Z,13.77
2022-10-25T03:42:09.366Z,13.84
2022-10-25T03:44:42.867Z,13.88
2022-10-25T03:47:17.286Z,13.87
2022-10-25T03:49:50.844Z,13.98
2022-10-25T03:52:25.925Z,13.94
2022-10-25T03:54:59.437Z,13.96
2022-10-25T03:57:33.398Z,13.96
2022-10-25T04:00:07.788Z,13.95
2022-10-25T04:02:41.566Z,13.96
2022-10-25T04:05:15.068Z,14.02
2022-10-25T04:07:50.112Z,13.97
2022-10-25T04:10:25.235Z,14.01
2022-10-25T04:12:59.232Z,14.02
2022-10-25T04:15:32.754Z,14.14
2022-10-25T04:18:07.166Z,14.06
2022-10-25T04:20:40.664Z,14.05
2022-10-25T04:23:15.851Z,14.02
2022-10-25T04:25:49.355Z,13.94
2022-10-25T04:28:23.106Z,13.92
2022-10-25T04:30:56.533Z,13.94
2022-10-25T04:33:30.212Z,13.92
2022-10-25T04:36:03.738Z,13.86
2022-10-25T04:38:38.878Z,13.82
2022-10-25T04:41:12.364Z,13.90
2022-10-25T04:43:46.965Z,13.90
2022-10-25T04:46:22.611Z,13.86
2022-10-25T04:48:56.328Z,13.87
2022-10-25T04:51:30.381Z,13.84
2022-10-25T04:54:05.486Z,13.81
2022-10-25T04:56:39.129Z,13.75
2022-10-25T04:59:13.039Z,13.73
2022-10-25T05:01:46.504Z,13.66
2022-10-25T05:04:20.215Z,13.62
2022-10-25T05:06:53.719Z,13.55
2022-10-25T05:09:28.780Z,13.65
2022-10-25T05:12:02.265Z,13.64
2022-10-25T05:14:35.982Z,13.67
2022-10-25T05:17:09.557Z,13.71
2022-10-25T05:19:43.269Z,13.70
2022-10-25T05:22:16.809Z,13.72
2022-10-25T05:24:52.070Z,13.71
2022-10-25T05:27:25.601Z,13.68
2022-10-25T05:29:59.389Z,13.65
2022-10-25T05:32:33.115Z,13.63
2022-10-25T05:35:07.089Z,13.62
2022-10-25T05:37:40.631Z,13.68
2022-10-25T05:40:15.713Z,13.71
2022-10-25T05:42:49.395Z,13.71
2022-10-25T05:45:23.420Z,13.72
2022-10-25T05:47:56.939Z,13.79
2022-10-25T05:50:30.723Z,13.79
2022-10-25T05:53:04.386Z,13.81
2022-10-25T05:55:39.913Z,13.78
2022-10-25T05:58:13.348Z,13.81
2022-10-25T06:00:46.984Z,13.93
2022-10-25T06:03:20.529Z,14.00
2022-10-25T06:05:54.379Z,13.97
2022-10-25T06:08:27.939Z,13.97
2022-10-25T06:11:04.554Z,14.00
2022-10-25T06:13:39.158Z,14.06
2022-10-25T06:16:14.704Z,14.03
2022-10-25T06:18:48.464Z,14.08
2022-10-25T06:21:24.295Z,14.09
2022-10-25T06:23:59.624Z,14.07
2022-10-25T06:26:34.867Z,14.17
2022-10-25T06:29:08.375Z,14.09
2022-10-25T06:31:43.361Z,13.97
2022-10-25T06:34:16.839Z,13.91
2022-10-25T06:36:50.505Z,13.84
2022-10-25T06:39:23.997Z,13.82
2022-10-25T06:41:58.987Z,13.80
2022-10-25T06:44:32.450Z,13.88
2022-10-25T06:47:17.032Z,13.91
2022-10-25T06:49:51.095Z,13.94
2022-10-25T06:52:24.911Z,13.98
2022-10-25T06:54:58.510Z,13.99
2022-10-25T06:57:35.116Z,14.01
2022-10-25T07:00:15.151Z,14.07
2022-10-25T07:02:55.498Z,14.01
2022-10-25T07:05:29.040Z,14.06
2022-10-25T07:08:03.924Z,14.12
2022-10-25T07:10:39.219Z,14.15
2022-10-25T07:13:14.547Z,14.16
2022-10-25T07:15:48.073Z,14.25
2022-10-25T07:18:21.741Z,14.25
2022-10-25T07:21:00.123Z,14.30
2022-10-25T07:23:34.726Z,14.34
2022-10-25T07:26:08.548Z,14.32
2022-10-25T07:28:45.322Z,14.42
2022-10-25T07:31:21.900Z,14.49
2022-10-25T07:33:59.844Z,14.49
2022-10-25T07:36:34.804Z,14.48
2022-10-25T07:39:10.487Z,14.53
2022-10-25T07:41:44.604Z,14.54
2022-10-25T07:44:24.624Z,14.52
2022-10-25T07:46:59.494Z,14.60
2022-10-25T07:49:36.576Z,14.59
2022-10-25T07:52:11.374Z,14.67
2022-10-25T07:54:45.557Z,14.85
2022-10-25T07:57:19.714Z,14.90
2022-10-25T07:59:55.794Z,14.90
2022-10-25T08:02:30.730Z,14.84
2022-10-25T08:05:05.804Z,14.88
2022-10-25T08:07:40.185Z,14.88
2022-10-25T08:10:14.945Z,14.75
2022-10-25T08:12:50.130Z,14.84
2022-10-25T08:15:26.880Z,14.95
2022-10-25T08:18:01.779Z,15.10
2022-10-25T08:21:00.628Z,15.07
2022-10-25T08:23:34.409Z,15.05
2022-10-25T08:26:09.099Z,15.11
2022-10-25T08:28:43.138Z,15.15
2022-10-25T08:31:19.638Z,15.09
2022-10-25T08:33:53.789Z,15.12
2022-10-25T08:36:28.737Z,15.22
2022-10-25T08:39:03.964Z,15.38
2022-10-25T08:41:48.978Z,15.43
2022-10-25T08:44:42.871Z,15.39
2022-10-25T08:47:22.801Z,15.37
2022-10-25T08:50:01.832Z,15.32
2022-10-25T08:52:41.417Z,15.15
2022-10-25T08:55:18.211Z,15.04
2022-10-25T08:57:53.496Z,15.12
2022-10-25T09:00:35.587Z,15.10
2022-10-25T09:03:16.557Z,15.31
2022-10-25T09:06:01.017Z,15.45
2022-10-25T09:08:51.134Z,15.36
2022-10-25T09:11:38.384Z,15.62
2022-10-25T09:14:18.924Z,15.58
2022-10-25T09:16:54.868Z,15.70
2022-10-25T09:19:35.306Z,15.88
2022-10-25T09:22:15.841Z,15.98
2022-10-25T09:24:58.417Z,15.96
2022-10-25T09:27:37.931Z,16.07
2022-10-25T09:30:14.412Z,16.23
2022-10-25T09:33:11.903Z,16.38
2022-10-25T09:35:53.213Z,16.22
2022-10-25T09:38:40.027Z,15.97
2022-10-25T09:41:22.454Z,16.04
2022-10-25T09:43:59.054Z,16.07
2022-10-25T09:46:43.351Z,16.20
2022-10-25T09:49:26.394Z,16.20
2022-10-25T09:52:16.188Z,16.27
2022-10-25T09:54:57.657Z,16.25
2022-10-25T09:57:35.191Z,16.19
2022-10-25T10:00:14.340Z,16.41
2022-10-25T10:05:49.988Z,16.02
2022-10-25T10:08:34.437Z,15.91
2022-10-25T10:11:18.177Z,15.99
2022-10-25T10:13:57.941Z,16.14
2022-10-25T10:16:41.778Z,16.33
2022-10-25T10:19:21.026Z,16.40
2022-10-25T10:22:01.938Z,16.38
2022-10-25T10:24:41.907Z,16.40
2022-10-25T10:27:27.206Z,16.39
2022-10-25T10:30:09.578Z,16.35
2022-10-25T10:33:03.390Z,16.40
2022-10-25T10:35:38.305Z,16.49
2022-10-25T10:38:22.055Z,16.50
2022-10-25T10:41:15.377Z,16.57
2022-10-25T10:43:49.803Z,16.84
2022-10-25T10:46:26.452Z,16.95
2022-10-25T10:49:03.528Z,16.94
2022-10-25T10:51:44.347Z,16.69
2022-10-25T10:54:27.658Z,16.61
2022-10-25T10:57:26.257Z,16.58
2022-10-25T11:00:03.396Z,16.84
2022-10-25T11:02:42.293Z,17.01
2022-10-25T11:05:24.445Z,17.40
2022-10-25T11:08:00.518Z,17.68
2022-10-25T11:10:35.780Z,17.91
2022-10-25T11:13:14.029Z,17.85
2022-10-25T11:16:27.200Z,17.76
2022-10-25T11:19:34.405Z,17.83
2022-10-25T11:22:20.501Z,17.71
2022-10-25T11:25:07.052Z,17.78
2022-10-25T11:27:55.336Z,17.94
2022-10-25T11:30:37.861Z,17.65
2022-10-25T11:33:28.385Z,17.80
2022-10-25T11:36:13.066Z,17.76
2022-10-25T11:39:00.100Z,17.80
2022-10-25T11:41:45.139Z,17.89
2022-10-25T11:44:46.453Z,17.93
2022-10-25T11:47:35.182Z,17.75
2022-10-25T11:50:21.448Z,17.69
2022-10-25T11:53:17.011Z,17.58
2022-10-25T11:55:54.980Z,17.50
2022-10-25T11:58:40.692Z,17.49
2022-10-25T12:01:25.764Z,17.67
2022-10-25T12:04:19.357Z,17.61
2022-10-25T12:06:59.969Z,17.58
2022-10-25T12:09:44.754Z,17.62
2022-10-25T12:12:22.321Z,17.70
2022-10-25T12:15:00.696Z,17.78
2022-10-25T12:17:36.157Z,17.78
2022-10-25T12:20:22.184Z,17.78
2022-10-25T12:22:59.465Z,17.69
2022-10-25T12:25:38.236Z,17.55
2022-10-25T12:28:19.309Z,17.45
2022-10-25T12:30:57.922Z,17.31
2022-10-25T12:33:37.594Z,17.10
2022-10-25T12:36:24.693Z,17.05
2022-10-25T12:39:01.020Z,16.98
2022-10-25T12:41:40.231Z,16.97
2022-10-25T12:44:29.369Z,16.94
2022-10-25T12:47:18.503Z,16.87
2022-10-25T12:50:00.509Z,16.87
2022-10-25T12:52:38.843Z,16.99
2022-10-25T12:55:37.537Z,16.98
2022-10-25T12:58:20.754Z,17.05
2022-10-25T13:01:11.845Z,16.91
2022-10-25T13:04:18.593Z,16.85
2022-10-25T13:06:53.278Z,16.76
2022-10-25T13:09:33.343Z,16.79
2022-10-25T13:12:10.130Z,16.77
2022-10-25T13:14:46.916Z,16.66
2022-10-25T13:17:58.040Z,16.57
2022-10-25T13:20:52.145Z,16.58
2022-10-25T13:24:02.670Z,16.55
2022-10-25T13:27:15.357Z,16.57
2022-10-25T13:30:04.776Z,16.57
2022-10-25T13:32:41.167Z,16.50
2022-10-25T13:35:53.346Z,16.60
2022-10-25T13:38:29.697Z,16.50
2022-10-25T13:41:15.141Z,16.40
2022-10-25T13:44:00.950Z,16.41
2022-10-25T13:46:39.232Z,16.43
2022-10-25T13:49:37.910Z,16.34
2022-10-25T13:52:24.692Z,16.26
2022-10-25T13:54:58.943Z,16.34
2022-10-25T13:57:50.622Z,16.33
2022-10-25T14:00:41.141Z,16.33
2022-10-25T14:03:47.295Z,16.49
2022-10-25T14:06:29.065Z,16.63
2022-10-25T14:09:10.888Z,16.64
2022-10-25T14:11:50.071Z,16.59
2022-10-25T14:14:30.696Z,16.52
2022-10-25T14:17:19.754Z,16.36
2022-10-25T14:19:58.659Z,16.38
2022-10-25T14:22:37.380Z,16.34
2022-10-25T14:25:21.738Z,16.22
2022-10-25T14:28:06.843Z,16.14
2022-10-25T14:30:42.949Z,16.03
2022-10-25T14:33:25.645Z,16.03
2022-10-25T14:36:10.328Z,15.95
2022-10-25T14:38:53.241Z,15.82
2022-10-25T14:41:28.193Z,15.74
2022-10-25T14:44:03.053Z,15.73
2022-10-25T14:46:44.753Z,15.69
2022-10-25T14:49:18.724Z,15.70
2022-10-25T14:51:56.768Z,15.66
2022-10-25T14:54:33.748Z,15.69
2022-10-25T14:57:09.336Z,15.73
2022-10-25T14:59:47.502Z,15.69
2022-10-25T15:02:26.048Z,15.68
2022-10-25T15:05:02.136Z,15.74
2022-10-25T15:07:42.316Z,15.76
2022-10-25T15:10:36.167Z,15.73
2022-10-25T15:13:16.445Z,15.67
2022-10-25T15:15:52.031Z,15.66
2022-10-25T15:18:32.758Z,15.56
2022-10-25T15:21:10.984Z,15.53
2022-10-25T15:24:10.026Z,15.47
2022-10-25T15:26:55.982Z,15.47
2022-10-25T15:29:45.794Z,15.43
2022-10-25T15:32:21.560Z,15.41
2022-10-25T15:34:58.034Z,15.28
2022-10-25T15:37:32.102Z,15.21
2022-10-25T15:40:16.684Z,15.19
2022-10-25T15:42:50.588Z,15.10
2022-10-25T15:45:24.091Z,15.07
2022-10-25T15:47:58.476Z,14.97
2022-10-25T15:50:32.052Z,14.92
2022-10-25T15:53:05.722Z,14.84
2022-10-25T15:55:40.578Z,14.78
2022-10-25T15:58:14.314Z,14.75
2022-10-25T16:00:48.399Z,14.73
2022-10-25T16:03:24.623Z,14.75
2022-10-25T16:05:58.208Z,14.73
2022-10-25T16:08:33.345Z,14.70
2022-10-25T16:11:15.935Z,14.72
2022-10-25T16:13:53.919Z,14.75
2022-10-25T16:16:45.106Z,14.66
2022-10-25T16:19:21.504Z,14.62
2022-10-25T16:21:55.430Z,14.54
2022-10-25T16:24:29.104Z,14.50
2022-10-25T16:27:04.250Z,14.49
2022-10-25T16:29:38.371Z,14.44
2022-10-25T16:32:11.884Z,14.49
2022-10-25T16:34:46.174Z,14.59
2022-10-25T16:37:20.049Z,14.59
2022-10-25T16:39:54.685Z,14.59
2022-10-25T16:42:32.652Z,14.62
2022-10-25T16:45:15.642Z,14.66
2022-10-25T16:47:49.553Z,14.63
2022-10-25T16:50:23.931Z,14.60
2022-10-25T16:52:59.747Z,14.63
2022-10-25T16:55:33.509Z,14.66
2022-10-25T16:58:08.710Z,14.70
2022-10-25T17:00:42.444Z,14.76
2022-10-25T17:03:16.051Z,14.73
2022-10-25T17:05:52.189Z,14.80
2022-10-25T17:08:25.757Z,14.80
2022-10-25T17:10:59.443Z,14.83
2022-10-25T17:13:34.508Z,14.86
2022-10-25T17:16:10.824Z,14.87
2022-10-25T17:18:44.363Z,14.92
2022-10-25T17:21:18.904Z,14.94
2022-10-25T17:23:52.447Z,14.92
2022-10-25T17:26:26.181Z,14.92
2022-10-25T17:29:01.138Z,14.89
2022-10-25T17:31:34.939Z,14.88
2022-10-25T17:34:10.201Z,14.84
2022-10-25T17:36:44.428Z,14.82
2022-10-25T17:39:17.952Z,14.84
2022-10-25T17:41:51.612Z,14.87
2022-10-25T17:44:26.479Z,14.89
2022-10-25T17:47:02.333Z,14.84
2022-10-25T17:49:36.755Z,14.81
2022-10-25T17:52:10.579Z,14.82
2022-10-25T17:54:44.923Z,14.76
2022-10-25T17:57:18.714Z,14.80
2022-10-25T17:59:53.679Z,14.92
2022-10-25T18:02:27.571Z,14.88
2022-10-25T18:05:19.485Z,14.80
2022-10-25T18:07:54.929Z,14.81
2022-10-25T18:10:28.503Z,14.75
2022-10-25T18:13:02.592Z,14.72
2022-10-25T18:15:38.466Z,14.72
2022-10-25T18:18:12.177Z,14.73
2022-10-25T18:20:51.348Z,14.74
2022-10-25T18:23:25.625Z,14.64
2022-10-25T18:25:59.565Z,14.62
2022-10-25T18:28:34.335Z,14.59
2022-10-25T18:31:11.013Z,14.60
2022-10-25T18:33:45.219Z,14.59
2022-10-25T18:36:20.266Z,14.52
2022-10-25T18:38:54.489Z,14.45
2022-10-25T18:41:30.416Z,14.38
2022-10-25T18:44:12.807Z,14.34
2022-10-25T18:46:50.455Z,14.25
2022-10-25T18:49:24.617Z,14.18
2022-10-25T18:51:59.079Z,14.11
2022-10-25T18:54:33.147Z,14.04
2022-10-25T18:57:07.067Z,14.00
2022-10-25T18:59:41.309Z,14.01
2022-10-25T19:02:16.613Z,14.04
2022-10-25T19:04:50.881Z,13.97
2022-10-25T19:07:24.683Z,13.97
2022-10-25T19:09:58.842Z,13.91
2022-10-25T19:12:32.904Z,13.92
2022-10-25T19:15:07.911Z,13.90
2022-10-25T19:17:43.388Z,13.85
2022-10-25T19:20:17.417Z,13.86
2022-10-25T19:22:51.456Z,13.84
2022-10-25T19:25:28.625Z,13.85
2022-10-25T19:28:02.922Z,13.81
2022-10-25T19:30:37.885Z,13.80
2022-10-25T19:33:13.245Z,13.76
2022-10-25T19:35:47.452Z,13.69
2022-10-25T19:38:21.355Z,13.65
2022-10-25T19:40:59.230Z,13.61
2022-10-25T19:43:33.922Z,13.63
2022-10-25T19:46:08.794Z,13.62
2022-10-25T19:48:44.271Z,13.59
2022-10-25T19:51:20.998Z,13.54
2022-10-25T19:53:54.825Z,13.50
2022-10-25T19:56:29.031Z,13.45
2022-10-25T19:59:02.991Z,13.40
2022-10-25T20:01:37.150Z,13.43
2022-10-25T20:04:13.254Z,13.41
2022-10-25T20:06:47.394Z,13.37
2022-10-25T20:09:21.496Z,13.32
2022-10-25T20:11:55.620Z,13.33
2022-10-25T20:14:30.897Z,13.35
2022-10-25T20:17:05.833Z,13.37
2022-10-25T20:19:41.243Z,13.34
2022-10-25T20:22:16.176Z,13.34
2022-10-25T20:24:49.672Z,13.31
2022-10-25T20:27:23.401Z,13.29
2022-10-25T20:29:56.897Z,13.23
2022-10-25T20:32:30.678Z,13.21
2022-10-25T20:35:06.191Z,13.18
2022-10-25T20:37:40.018Z,13.19
2022-10-25T20:40:13.865Z,13.23
2022-10-25T20:42:47.811Z,13.26
2022-10-25T20:45:21.383Z,13.21
2022-10-25T20:47:55.910Z,13.15
2022-10-25T20:50:32.277Z,13.07
2022-10-25T20:53:10.063Z,12.99
2022-10-25T20:55:48.032Z,12.93
2022-10-25T20:58:23.316Z,12.87
2022-10-25T21:00:57.902Z,12.83
2022-10-25T21:03:33.103Z,12.81
2022-10-25T21:06:10.509Z,12.80
2022-10-25T21:08:44.399Z,12.77
2022-10-25T21:11:17.869Z,12.74
2022-10-25T21:13:51.562Z,12.71
2022-10-25T21:16:25.070Z,12.64
2022-10-25T21:19:02.872Z,12.62
2022-10-25T21:21:37.783Z,12.60
2022-10-25T21:24:11.599Z,12.58
2022-10-25T21:26:46.446Z,12.61
2022-10-25T21:29:20.192Z,12.58
2022-10-25T21:31:53.662Z,12.61
2022-10-25T21:34:27.394Z,12.62
2022-10-25T21:37:02.258Z,12.62
2022-10-25T21:39:35.973Z,12.63
2022-10-25T21:42:09.551Z,12.62
2022-10-25T21:44:43.319Z,12.60
2022-10-25T21:47:16.841Z,12.53
2022-10-25T21:49:50.632Z,12.49
2022-10-25T21:52:25.486Z,12.44
2022-10-25T21:54:59.244Z,12.41
2022-10-25T21:57:32.767Z,12.38
2022-10-25T22:00:07.511Z,12.35
2022-10-25T22:02:41.156Z,12.31
2022-10-25T22:05:15.138Z,12.30
2022-10-25T22:07:50.491Z,12.26
2022-10-25T22:10:24.614Z,12.27
2022-10-25T22:12:58.646Z,12.25
2022-10-25T22:15:32.467Z,12.24
2022-10-25T22:18:06.124Z,12.27
2022-10-25T22:20:39.864Z,12.25
2022-10-25T22:23:14.849Z,12.22
2022-10-25T22:25:48.571Z,12.20
2022-10-25T22:28:22.195Z,12.17
2022-10-25T22:30:59.474Z,12.13
2022-10-25T22:33:33.674Z,12.10
2022-10-25T22:36:10.011Z,12.12
2022-10-25T22:38:45.430Z,12.12
2022-10-25T22:41:21.065Z,12.13
2022-10-25T22:43:55.176Z,12.15
2022-10-25T22:46:30.911Z,12.13
2022-10-25T22:49:07.158Z,12.15
2022-10-25T22:51:40.833Z,12.18
2022-10-25T22:54:15.807Z,12.16
2022-10-25T22:56:49.536Z,12.12
2022-10-25T22:59:22.994Z,12.06
2022-10-25T23:01:56.799Z,12.02
2022-10-25T23:04:30.373Z,11.97
2022-10-25T23:07:04.162Z,11.92
2022-10-25T23:09:39.068Z,11.85
2022-10-25T23:12:12.819Z,11.79
2022-10-25T23:14:46.508Z,11.73
2022-10-25T23:17:20.239Z,11.67
2022-10-25T23:19:53.736Z,11.61
2022-10-25T23:22:27.455Z,11.57
2022-10-25T23:25:02.428Z,11.51
2022-10-25T23:27:36.151Z,11.46
2022-10-25T23:30:13.110Z,11.41
2022-10-25T23:32:47.288Z,11.37
2022-10-25T23:35:20.866Z,11.30
2022-10-25T23:37:54.686Z,11.26
2022-10-25T23:40:31.552Z,11.20
2022-10-25T23:43:05.697Z,11.14
2022-10-25T23:45:39.889Z,11.10
2022-10-25T23:48:13.617Z,11.04
2022-10-25T23:50:47.196Z,10.97
2022-10-25T23:53:20.920Z,10.94
2022-10-25T23:55:56.526Z,10.88
2022-10-25T23:58:30.631Z,10.85
